createdAt,value
2022-12-11T00:00:23.860Z,3.50
2022-12-11T00:02:50.941Z,4.70
2022-12-11T00:05:17.936Z,5.00
2022-12-11T00:07:45.257Z,5.30
2022-12-11T00:10:12.356Z,5.40
2022-12-11T00:12:39.294Z,4.40
2022-12-11T00:15:07.031Z,4.40
2022-12-11T00:17:34.321Z,3.90
2022-12-11T00:20:02.492Z,2.70
2022-12-11T00:22:30.765Z,3.90
2022-12-11T00:24:57.816Z,3.70
2022-12-11T00:27:25.269Z,3.70
2022-12-11T00:29:52.314Z,3.30
2022-12-11T00:32:19.377Z,3.50
2022-12-11T00:34:46.516Z,4.80
2022-12-11T00:37:13.662Z,2.50
2022-12-11T00:39:40.918Z,3.10
2022-12-11T00:42:08.993Z,3.70
2022-12-11T00:44:36.500Z,2.50
2022-12-11T00:47:04.146Z,2.60
2022-12-11T00:49:31.324Z,3.60
2022-12-11T00:51:58.340Z,3.80
2022-12-11T00:54:25.266Z,2.80
2022-12-11T00:56:52.247Z,2.70
2022-12-11T00:59:20.058Z,4.80
2022-12-11T01:01:47.179Z,4.30
2022-12-11T01:04:14.266Z,5.30
2022-12-11T01:06:41.313Z,4.70
2022-12-11T01:09:27.012Z,4.10
2022-12-11T01:11:54.149Z,2.40
2022-12-11T01:14:21.193Z,3.80
2022-12-11T01:16:48.291Z,3.70
2022-12-11T01:19:15.592Z,3.90
2022-12-11T01:21:42.643Z,3.40
2022-12-11T01:24:09.656Z,4.00
2022-12-11T01:26:36.742Z,3.70
2022-12-11T01:29:03.992Z,5.70
2022-12-11T01:31:31.060Z,4.80
2022-12-11T01:33:58.086Z,2.60
2022-12-11T01:36:25.443Z,4.20
2022-12-11T01:38:54.565Z,2.90
2022-12-11T01:41:22.103Z,5.10
2022-12-11T01:44:15.174Z,3.10
2022-12-11T01:46:43.236Z,3.20
2022-12-11T01:49:14.471Z,5.40
2022-12-11T01:51:52.581Z,2.80
2022-12-11T01:54:23.341Z,4.80
2022-12-11T01:56:53.486Z,6.10
2022-12-11T01:59:24.809Z,4.40
2022-12-11T02:02:19.510Z,3.90
2022-12-11T02:04:48.745Z,5.10
2022-12-11T02:07:16.297Z,4.40
2022-12-11T02:09:45.545Z,4.20
2022-12-11T02:12:12.610Z,3.80
2022-12-11T02:15:18.188Z,3.50
2022-12-11T02:17:52.147Z,2.30
2022-12-11T02:20:38.444Z,4.40
2022-12-11T02:23:49.736Z,3.30
2022-12-11T02:26:25.689Z,1.80
2022-12-11T02:29:02.776Z,4.30
2022-12-11T02:31:38.859Z,4.00
2022-12-11T02:34:30.832Z,3.00
2022-12-11T02:37:02.462Z,4.30
2022-12-11T02:39:31.124Z,3.20
2022-12-11T02:41:58.923Z,4.50
2022-12-11T02:44:30.622Z,2.70
2022-12-11T02:46:58.905Z,5.30
2022-12-11T02:49:28.414Z,3.70
2022-12-11T02:51:57.118Z,3.60
2022-12-11T02:54:30.700Z,4.20
2022-12-11T02:57:07.674Z,2.40
2022-12-11T02:59:38.818Z,3.40
2022-12-11T03:02:06.214Z,4.90
2022-12-11T03:04:36.356Z,4.20
2022-12-11T03:07:12.425Z,4.10
2022-12-11T03:09:44.331Z,2.70
2022-12-11T03:12:15.670Z,3.40
2022-12-11T03:14:43.736Z,3.50
2022-12-11T03:17:28.740Z,3.00
2022-12-11T03:19:55.656Z,3.60
2022-12-11T03:22:46.046Z,2.60
2022-12-11T03:25:26.300Z,3.40
2022-12-11T03:28:10.352Z,3.90
2022-12-11T03:30:39.091Z,3.20
2022-12-11T03:33:12.160Z,3.50
2022-12-11T03:35:42.656Z,3.70
2022-12-11T03:38:19.024Z,5.50
2022-12-11T03:40:50.468Z,4.60
2022-12-11T03:43:18.436Z,4.20
2022-12-11T03:45:47.004Z,5.30
2022-12-11T03:48:17.348Z,4.50
2022-12-11T03:50:47.098Z,6.30
2022-12-11T03:53:15.241Z,4.10
2022-12-11T03:55:43.346Z,6.60
2022-12-11T03:58:10.388Z,4.20
2022-12-11T04:00:37.913Z,5.00
2022-12-11T04:03:14.679Z,4.70
2022-12-11T04:05:47.810Z,6.40
2022-12-11T04:08:16.020Z,4.60
2022-12-11T04:10:44.025Z,5.20
2022-12-11T04:13:11.589Z,4.50
2022-12-11T04:15:40.395Z,4.50
2022-12-11T04:18:27.362Z,4.40
2022-12-11T04:21:14.817Z,3.80
2022-12-11T04:24:00.699Z,4.70
2022-12-11T04:26:27.643Z,5.00
2022-12-11T04:28:54.931Z,5.00
2022-12-11T04:31:23.367Z,5.10
2022-12-11T04:33:50.742Z,3.90
2022-12-11T04:36:17.889Z,6.10
2022-12-11T04:38:44.935Z,4.10
2022-12-11T04:41:15.248Z,3.70
2022-12-11T04:43:45.351Z,4.20
2022-12-11T04:46:15.177Z,3.60
2022-12-11T04:48:42.648Z,4.10
2022-12-11T04:51:10.146Z,4.10
2022-12-11T04:53:37.257Z,4.20
2022-12-11T04:56:09.470Z,5.10
2022-12-11T04:58:37.196Z,6.00
2022-12-11T05:01:19.916Z,4.80
2022-12-11T05:03:47.663Z,5.90
2022-12-11T05:06:14.971Z,8.30
2022-12-11T05:08:43.101Z,6.30
2022-12-11T05:11:13.637Z,3.30
2022-12-11T05:13:40.688Z,6.00
2022-12-11T05:16:09.783Z,5.10
2022-12-11T05:18:36.818Z,5.30
2022-12-11T05:21:06.852Z,3.40
2022-12-11T05:23:34.755Z,4.60
2022-12-11T05:26:05.531Z,5.20
2022-12-11T05:28:35.338Z,4.70
2022-12-11T05:31:08.356Z,6.30
2022-12-11T05:33:35.984Z,5.40
2022-12-11T05:36:03.817Z,4.50
2022-12-11T05:38:31.215Z,6.70
2022-12-11T05:41:08.264Z,6.50
2022-12-11T05:43:36.581Z,4.10
2022-12-11T05:46:08.684Z,4.40
2022-12-11T05:48:36.728Z,4.60
2022-12-11T05:51:04.239Z,3.60
2022-12-11T05:53:31.730Z,4.60
2022-12-11T05:56:03.313Z,8.60
2022-12-11T05:58:30.783Z,7.00
2022-12-11T06:00:57.959Z,7.80
2022-12-11T06:03:25.646Z,5.00
2022-12-11T06:05:52.725Z,4.60
2022-12-11T06:08:19.698Z,5.40
2022-12-11T06:10:50.296Z,4.90
2022-12-11T06:13:17.594Z,4.90
2022-12-11T06:15:44.925Z,8.40
2022-12-11T06:18:12.067Z,7.00
2022-12-11T06:20:39.451Z,3.50
2022-12-11T06:23:06.648Z,4.20
2022-12-11T06:25:33.898Z,4.70
2022-12-11T06:28:00.955Z,5.40
2022-12-11T06:30:37.419Z,5.10
2022-12-11T06:33:07.128Z,5.10
2022-12-11T06:35:38.756Z,5.20
2022-12-11T06:38:09.066Z,5.50
2022-12-11T06:40:36.299Z,6.00
2022-12-11T06:43:03.678Z,5.60
2022-12-11T06:45:31.014Z,7.30
2022-12-11T06:47:58.996Z,6.80
2022-12-11T06:50:26.643Z,6.50
2022-12-11T06:52:53.656Z,6.20
2022-12-11T06:55:20.899Z,4.90
2022-12-11T06:57:47.961Z,5.80
2022-12-11T07:00:15.994Z,6.20
2022-12-11T07:02:42.947Z,5.50
2022-12-11T07:05:10.085Z,4.80
2022-12-11T07:07:37.478Z,11.10
2022-12-11T07:10:08.225Z,6.70
2022-12-11T07:12:36.588Z,6.60
2022-12-11T07:15:04.797Z,4.50
2022-12-11T07:17:31.968Z,6.20
2022-12-11T07:19:58.968Z,5.10
2022-12-11T07:22:25.985Z,6.30
2022-12-11T07:24:53.048Z,8.20
2022-12-11T07:27:20.100Z,7.50
2022-12-11T07:29:47.071Z,6.80
2022-12-11T07:32:14.788Z,4.90
2022-12-11T07:34:41.956Z,6.10
2022-12-11T07:37:09.012Z,5.80
2022-12-11T07:39:36.096Z,4.70
2022-12-11T07:42:03.206Z,5.90
2022-12-11T07:44:30.179Z,4.90
2022-12-11T07:46:57.203Z,4.80
2022-12-11T07:49:24.255Z,7.80
2022-12-11T07:51:51.393Z,5.30
2022-12-11T07:54:18.470Z,7.30
2022-12-11T07:56:52.751Z,5.30
2022-12-11T07:59:21.401Z,6.40
2022-12-11T08:01:48.701Z,4.60
2022-12-11T08:04:16.671Z,5.60
2022-12-11T08:06:44.060Z,4.80
2022-12-11T08:09:19.151Z,4.70
2022-12-11T08:11:51.991Z,4.70
2022-12-11T08:14:20.224Z,4.60
2022-12-11T08:16:47.613Z,3.40
2022-12-11T08:19:15.579Z,6.00
2022-12-11T08:21:42.696Z,5.50
2022-12-11T08:24:10.462Z,4.70
2022-12-11T08:26:37.609Z,5.00
2022-12-11T08:29:04.977Z,3.20
2022-12-11T08:31:33.551Z,5.10
2022-12-11T08:34:00.807Z,6.00
2022-12-11T08:36:28.585Z,4.60
2022-12-11T08:38:56.745Z,5.90
2022-12-11T08:41:27.598Z,7.30
2022-12-11T08:43:55.987Z,6.00
2022-12-11T08:46:25.557Z,4.80
2022-12-11T08:48:52.986Z,4.80
2022-12-11T08:51:26.148Z,5.00
2022-12-11T08:53:56.539Z,5.70
2022-12-11T08:56:23.997Z,5.10
2022-12-11T08:58:51.658Z,5.80
2022-12-11T09:01:25.238Z,6.10
2022-12-11T09:03:53.651Z,5.80
2022-12-11T09:06:23.565Z,5.70
2022-12-11T09:08:53.105Z,5.20
2022-12-11T09:11:26.718Z,5.50
2022-12-11T09:13:54.361Z,4.10
2022-12-11T09:16:23.726Z,5.80
2022-12-11T09:18:52.574Z,4.50
2022-12-11T09:21:22.704Z,3.50
2022-12-11T09:23:52.957Z,5.70
2022-12-11T09:26:20.315Z,5.50
2022-12-11T09:28:47.885Z,4.50
2022-12-11T09:31:20.837Z,5.10
2022-12-11T09:33:48.494Z,8.10
2022-12-11T09:36:15.783Z,5.10
2022-12-11T09:38:46.929Z,7.60
2022-12-11T09:41:38.113Z,7.60
2022-12-11T09:44:30.893Z,4.60
2022-12-11T09:46:58.682Z,5.30
2022-12-11T09:49:40.140Z,5.50
2022-12-11T09:52:16.386Z,6.00
2022-12-11T09:54:57.290Z,4.70
2022-12-11T09:58:08.880Z,6.30
2022-12-11T10:00:56.742Z,8.40
2022-12-11T10:03:44.768Z,6.30
2022-12-11T10:06:38.524Z,10.10
2022-12-11T10:09:39.365Z,5.10
2022-12-11T10:12:21.111Z,5.20
2022-12-11T10:15:06.755Z,5.00
2022-12-11T10:17:37.325Z,5.10
2022-12-11T10:20:17.308Z,5.40
2022-12-11T10:22:45.668Z,8.70
2022-12-11T10:25:36.291Z,6.40
2022-12-11T10:28:17.499Z,6.40
2022-12-11T10:30:48.382Z,5.90
2022-12-11T10:33:23.174Z,4.70
2022-12-11T10:35:57.927Z,11.90
2022-12-11T10:38:30.367Z,8.00
2022-12-11T10:41:13.991Z,10.70
2022-12-11T10:43:44.148Z,5.60
2022-12-11T10:46:19.686Z,7.40
2022-12-11T10:48:55.506Z,10.00
2022-12-11T10:51:34.835Z,8.30
2022-12-11T10:54:17.071Z,7.30
2022-12-11T10:56:47.342Z,3.30
2022-12-11T10:59:30.798Z,5.80
2022-12-11T11:01:58.620Z,7.10
2022-12-11T11:04:36.613Z,9.40
2022-12-11T11:07:18.868Z,4.10
2022-12-11T11:09:48.454Z,7.90
2022-12-11T11:12:27.893Z,4.10
2022-12-11T11:15:12.468Z,9.40
2022-12-11T11:18:15.618Z,11.20
2022-12-11T11:20:48.880Z,8.60
2022-12-11T11:23:18.956Z,6.00
2022-12-11T11:25:50.756Z,10.10
2022-12-11T11:28:25.385Z,6.20
2022-12-11T11:31:23.023Z,5.10
2022-12-11T11:33:56.558Z,6.10
2022-12-11T11:36:29.019Z,6.90
2022-12-11T11:39:14.567Z,7.10
2022-12-11T11:41:50.938Z,4.60
2022-12-11T11:44:25.690Z,7.00
2022-12-11T11:46:59.967Z,5.30
2022-12-11T11:49:50.316Z,5.30
2022-12-11T11:52:32.691Z,6.40
2022-12-11T11:55:22.740Z,6.80
2022-12-11T11:57:59.053Z,7.00
2022-12-11T12:00:33.282Z,7.90
2022-12-11T12:03:14.147Z,6.60
2022-12-11T12:06:02.593Z,4.40
2022-12-11T12:09:00.775Z,6.70
2022-12-11T12:11:31.085Z,5.30
2022-12-11T12:14:50.589Z,6.40
2022-12-11T12:17:07.309Z,6.60
2022-12-11T12:19:43.748Z,5.20
2022-12-11T12:22:33.940Z,3.80
2022-12-11T12:25:07.527Z,4.70
2022-12-11T12:27:56.176Z,5.00
2022-12-11T12:30:24.160Z,5.30
2022-12-11T12:32:57.219Z,5.20
2022-12-11T12:35:36.285Z,3.80
2022-12-11T12:38:15.722Z,5.80
2022-12-11T12:41:04.787Z,6.80
2022-12-11T12:43:41.072Z,3.80
2022-12-11T12:46:43.522Z,5.10
2022-12-11T12:49:17.838Z,3.10
2022-12-11T12:51:45.973Z,5.50
2022-12-11T12:54:17.491Z,4.30
2022-12-11T12:56:47.278Z,5.30
2022-12-11T12:59:23.947Z,4.90
2022-12-11T13:01:57.277Z,5.70
2022-12-11T13:04:55.529Z,4.10
2022-12-11T13:07:30.866Z,2.90
2022-12-11T13:10:01.495Z,3.90
2022-12-11T13:12:43.799Z,5.60
2022-12-11T13:15:42.800Z,6.00
2022-12-11T13:18:37.606Z,3.50
2022-12-11T13:21:35.165Z,4.70
2022-12-11T13:24:20.744Z,3.70
2022-12-11T13:26:51.281Z,4.10
2022-12-11T13:29:40.956Z,3.80
2022-12-11T13:32:08.001Z,5.50
2022-12-11T13:34:41.500Z,4.30
2022-12-11T13:37:37.120Z,3.10
2022-12-11T13:40:15.350Z,6.00
2022-12-11T13:42:50.671Z,3.70
2022-12-11T13:45:30.150Z,2.50
2022-12-11T13:47:59.001Z,4.40
2022-12-11T13:50:32.289Z,4.60
2022-12-11T13:53:01.565Z,3.10
2022-12-11T13:55:34.688Z,3.30
2022-12-11T13:58:02.066Z,2.60
2022-12-11T14:00:32.993Z,6.00
2022-12-11T14:03:05.007Z,2.90
2022-12-11T14:05:32.252Z,2.30
2022-12-11T14:08:05.880Z,3.20
2022-12-11T14:10:33.396Z,3.50
2022-12-11T14:13:07.083Z,2.20
2022-12-11T14:15:36.590Z,3.60
2022-12-11T14:18:05.662Z,4.50
2022-12-11T14:20:34.857Z,3.20
2022-12-11T14:23:16.242Z,4.00
2022-12-11T14:25:52.100Z,4.20
2022-12-11T14:28:19.326Z,3.40
2022-12-11T14:30:53.756Z,4.00
2022-12-11T14:33:24.345Z,2.90
2022-12-11T14:35:54.904Z,3.00
2022-12-11T14:38:29.602Z,3.90
2022-12-11T14:41:02.437Z,2.20
2022-12-11T14:43:37.499Z,2.60
2022-12-11T14:46:12.033Z,2.60
2022-12-11T14:48:59.078Z,2.40
2022-12-11T14:51:32.729Z,2.20
2022-12-11T14:54:04.177Z,3.70
2022-12-11T14:56:32.980Z,2.80
2022-12-11T14:59:19.727Z,3.20
2022-12-11T15:02:02.444Z,2.80
2022-12-11T15:04:33.224Z,2.40
2022-12-11T15:07:00.981Z,2.50
2022-12-11T15:09:34.783Z,3.70
2022-12-11T15:12:13.082Z,2.60
2022-12-11T15:15:03.585Z,2.90
2022-12-11T15:17:31.360Z,2.40
2022-12-11T15:20:09.088Z,2.50
2022-12-11T15:22:37.237Z,2.30
2022-12-11T15:25:06.078Z,3.80
2022-12-11T15:27:42.248Z,4.10
2022-12-11T15:30:15.369Z,2.80
2022-12-11T15:32:42.401Z,2.50
2022-12-11T15:35:24.730Z,2.60
2022-12-11T15:37:56.796Z,1.90
2022-12-11T15:40:25.174Z,4.20
2022-12-11T15:42:53.044Z,2.20
2022-12-11T15:45:24.015Z,3.00
2022-12-11T15:47:51.904Z,3.30
2022-12-11T15:50:22.672Z,2.60
2022-12-11T15:52:51.298Z,3.20
2022-12-11T15:55:20.330Z,2.60
2022-12-11T15:57:51.726Z,3.00
2022-12-11T16:00:20.269Z,2.10
2022-12-11T16:02:47.936Z,2.80
2022-12-11T16:05:15.078Z,1.90
2022-12-11T16:07:42.611Z,2.90
2022-12-11T16:10:16.007Z,5.30
2022-12-11T16:12:43.591Z,2.10
2022-12-11T16:15:16.322Z,3.20
2022-12-11T16:17:46.980Z,1.50
2022-12-11T16:20:15.563Z,2.80
2022-12-11T16:22:42.719Z,2.90
2022-12-11T16:25:10.326Z,3.40
2022-12-11T16:27:37.582Z,2.20
2022-12-11T16:30:05.369Z,2.50
2022-12-11T16:32:32.900Z,2.70
2022-12-11T16:35:01.378Z,10.10
2022-12-11T16:37:28.634Z,2.30
2022-12-11T16:39:55.969Z,2.10
2022-12-11T16:42:22.988Z,2.30
2022-12-11T16:44:50.195Z,2.40
2022-12-11T16:47:18.688Z,3.30
2022-12-11T16:49:45.721Z,1.90
2022-12-11T16:52:15.356Z,1.90
2022-12-11T16:54:46.617Z,2.60
2022-12-11T16:57:13.635Z,3.50
2022-12-11T16:59:41.175Z,3.10
2022-12-11T17:02:10.068Z,3.80
2022-12-11T17:04:40.491Z,3.10
2022-12-11T17:07:07.575Z,3.20
2022-12-11T17:09:35.410Z,2.50
2022-12-11T17:12:02.687Z,4.40
2022-12-11T17:14:31.646Z,3.90
2022-12-11T17:16:59.050Z,7.20
2022-12-11T17:19:27.066Z,3.80
2022-12-11T17:21:56.333Z,4.50
2022-12-11T17:24:23.475Z,2.30
2022-12-11T17:26:50.594Z,3.90
2022-12-11T17:29:17.733Z,7.40
2022-12-11T17:31:45.089Z,3.40
2022-12-11T17:34:12.131Z,2.10
2022-12-11T17:36:39.697Z,3.50
2022-12-11T17:39:07.154Z,2.70
2022-12-11T17:41:34.095Z,3.10
2022-12-11T17:44:01.144Z,4.30
2022-12-11T17:46:28.187Z,3.10
2022-12-11T17:48:55.123Z,4.70
2022-12-11T17:51:24.202Z,3.70
2022-12-11T17:53:55.565Z,2.40
2022-12-11T17:56:24.281Z,2.80
2022-12-11T17:58:51.416Z,3.90
2022-12-11T18:01:20.224Z,2.50
2022-12-11T18:03:47.503Z,4.40
2022-12-11T18:06:16.304Z,3.90
2022-12-11T18:08:44.544Z,4.60
2022-12-11T18:11:20.194Z,3.10
2022-12-11T18:13:48.077Z,3.10
2022-12-11T18:16:23.790Z,5.00
2022-12-11T18:18:51.352Z,4.70
2022-12-11T18:21:22.716Z,4.60
2022-12-11T18:23:50.989Z,3.90
2022-12-11T18:26:19.605Z,7.20
2022-12-11T18:28:48.248Z,6.80
2022-12-11T18:31:15.933Z,12.10
2022-12-11T18:33:44.986Z,10.00
2022-12-11T18:36:14.054Z,10.70
2022-12-11T18:38:42.378Z,20.50
2022-12-11T18:41:11.269Z,37.70
2022-12-11T18:43:38.603Z,57.70
2022-12-11T18:46:11.323Z,70.00
2022-12-11T18:48:38.390Z,79.80
2022-12-11T18:51:11.948Z,81.90
2022-12-11T18:53:40.723Z,98.90
2022-12-11T18:56:10.998Z,92.20
2022-12-11T18:58:38.445Z,90.20
2022-12-11T19:01:08.473Z,95.40
2022-12-11T19:03:36.473Z,89.70
2022-12-11T19:06:25.218Z,88.50
2022-12-11T19:08:52.618Z,81.60
2022-12-11T19:11:23.459Z,84.30
2022-12-11T19:13:52.271Z,84.30
2022-12-11T19:16:25.202Z,87.90
2022-12-11T19:18:52.697Z,81.40
2022-12-11T19:21:20.053Z,81.90
2022-12-11T19:23:48.801Z,76.90
2022-12-11T19:26:19.116Z,75.80
2022-12-11T19:28:47.574Z,74.70
2022-12-11T19:31:17.722Z,66.90
2022-12-11T19:33:46.939Z,67.70
2022-12-11T19:36:18.212Z,62.80
2022-12-11T19:38:45.889Z,62.20
2022-12-11T19:41:16.916Z,57.80
2022-12-11T19:43:44.882Z,54.50
2022-12-11T19:46:13.183Z,54.90
2022-12-11T19:48:41.625Z,51.10
2022-12-11T19:51:14.886Z,53.10
2022-12-11T19:53:43.206Z,48.40
2022-12-11T19:56:11.899Z,51.80
2022-12-11T19:58:38.996Z,47.80
2022-12-11T20:01:07.584Z,45.60
2022-12-11T20:03:36.153Z,44.60
2022-12-11T20:06:06.744Z,45.70
2022-12-11T20:08:44.570Z,45.80
2022-12-11T20:11:17.935Z,45.20
2022-12-11T20:13:47.578Z,45.50
2022-12-11T20:16:15.682Z,42.40
2022-12-11T20:18:43.442Z,40.00
2022-12-11T20:21:15.464Z,43.10
2022-12-11T20:23:43.452Z,42.40
2022-12-11T20:26:11.726Z,41.00
2022-12-11T20:28:38.730Z,38.50
2022-12-11T20:31:08.140Z,37.60
2022-12-11T20:33:35.159Z,41.80
2022-12-11T20:36:06.569Z,36.00
2022-12-11T20:38:34.648Z,35.50
2022-12-11T20:41:01.812Z,35.50
2022-12-11T20:43:28.767Z,34.00
2022-12-11T20:45:55.744Z,33.80
2022-12-11T20:48:22.823Z,35.10
2022-12-11T20:50:50.010Z,34.90
2022-12-11T20:53:16.998Z,33.40
2022-12-11T20:55:45.230Z,34.20
2022-12-11T20:58:12.203Z,32.90
2022-12-11T21:00:40.230Z,30.70
2022-12-11T21:03:07.295Z,29.00
2022-12-11T21:05:34.485Z,30.00
2022-12-11T21:08:02.250Z,30.60
2022-12-11T21:10:29.604Z,29.70
2022-12-11T21:12:56.657Z,29.00
2022-12-11T21:15:23.813Z,28.30
2022-12-11T21:17:50.961Z,29.60
2022-12-11T21:20:18.739Z,27.80
2022-12-11T21:22:45.798Z,27.40
2022-12-11T21:25:12.994Z,27.10
2022-12-11T21:27:40.290Z,26.30
2022-12-11T21:30:07.558Z,25.90
2022-12-11T21:32:35.579Z,26.40
2022-12-11T21:35:03.243Z,25.40
2022-12-11T21:37:30.219Z,25.70
2022-12-11T21:39:57.431Z,24.00
2022-12-11T21:42:25.937Z,24.00
2022-12-11T21:45:37.648Z,27.60
2022-12-11T21:47:43.490Z,23.90
2022-12-11T21:50:10.936Z,26.00
2022-12-11T21:52:39.135Z,24.80
2022-12-11T21:55:06.924Z,22.20
2022-12-11T21:57:36.758Z,22.40
2022-12-11T22:00:06.001Z,24.40
2022-12-11T22:02:41.150Z,23.20
2022-12-11T22:05:09.347Z,23.40
2022-12-11T22:07:36.564Z,22.40
2022-12-11T22:10:05.154Z,23.30
2022-12-11T22:12:32.192Z,22.60
2022-12-11T22:14:59.668Z,21.10
2022-12-11T22:17:27.010Z,23.90
2022-12-11T22:19:55.952Z,25.90
2022-12-11T22:22:23.056Z,26.50
2022-12-11T22:24:50.980Z,25.30
2022-12-11T22:27:22.062Z,22.80
2022-12-11T22:29:52.286Z,20.50
2022-12-11T22:32:19.304Z,23.40
2022-12-11T22:34:46.240Z,23.50
2022-12-11T22:37:13.428Z,22.50
2022-12-11T22:39:40.430Z,18.90
2022-12-11T22:42:07.466Z,20.00
2022-12-11T22:44:34.478Z,20.80
2022-12-11T22:47:01.405Z,19.90
2022-12-11T22:49:28.365Z,18.50
2022-12-11T22:51:57.554Z,17.90
2022-12-11T22:54:24.769Z,20.80
2022-12-11T22:56:53.982Z,19.00
2022-12-11T22:59:20.996Z,18.40
2022-12-11T23:01:47.957Z,21.10
2022-12-11T23:04:14.976Z,17.80
2022-12-11T23:06:42.508Z,19.10
2022-12-11T23:09:11.029Z,18.90
2022-12-11T23:11:38.645Z,19.70
2022-12-11T23:14:08.569Z,17.20
2022-12-11T23:16:38.333Z,18.10
2022-12-11T23:19:05.555Z,18.90
2022-12-11T23:21:34.121Z,18.20
2022-12-11T23:24:01.652Z,16.40
2022-12-11T23:26:29.430Z,17.30
2022-12-11T23:28:59.454Z,19.80
2022-12-11T23:31:27.111Z,19.00
2022-12-11T23:33:54.467Z,17.70
2022-12-11T23:36:21.828Z,15.80
2022-12-11T23:38:54.352Z,16.50
2022-12-11T23:41:22.345Z,17.30
2022-12-11T23:43:49.605Z,17.50
2022-12-11T23:46:20.302Z,14.50
2022-12-11T23:48:47.427Z,15.20
2022-12-11T23:51:17.798Z,14.50
2022-12-11T23:53:45.642Z,14.30
2022-12-11T23:56:18.465Z,14.10
2022-12-11T23:58:46.018Z,13.30
